Impacts TAF Board
For situational awareness. Not to be used for flight planning purposes.
IDs:

KMIA - Miami Intl, FL, US

Issued at 2114 UTC 17 Jun 2019
Updated at 2140 UTC 17 Jun 2019
Potential Impact None Slight Moderate High
Time<<18/10Z 18/11Z 18/12Z 18/13Z 18/14Z 18/15Z 18/16Z 18/17Z 18/18Z 18/19Z 18/20Z 18/21Z 18/22Z>>
Type PRVL PRVL PRVL PRVL PRVL PRVL PRVL PRVL PRVL PRVL PRVL PRVL PRVL
VIS >6 >6 >6 >6 >6 >6 >6 >6 >6 >6 >6 >6 >6
CIG 50 50 50 50 35 35 35 35 35 35 35 35 35
Cover BKN BKN BKN BKN BKN BKN BKN BKN BKN BKN BKN BKN BKN
FltCat VFR VFR VFR VFR VFR VFR VFR VFR VFR VFR VFR VFR VFR
WX VCTS VCTS VCTS VCTS VCTS VCTS VCTS VCTS VCTS VCTS VCTS VCTS VCTS
WDir 150 150 150 150 160 160 160 160 160 160 160 160 160
WSpd 8 8 8 8 11 11 11 11 11 11 11 11 11
WGst -- -- -- -- -- -- -- -- -- -- -- -- --
Raw TAF
KMIA 172114Z 1721/1824 VRB05KT P6SM VCSH SCT020 SCT080 BKN150
  FM180900 15008KT P6SM VCTS SCT020CB BKN050 BKN100
  FM181400 16011KT P6SM VCTS SCT020CB BKN035 BKN060


METAR Board
Radar Display
Forecast Discussion
For situational awareness. Not to be used for flight planning purposes.